createdAt,value
2019-04-16T00:00:20.770Z,80.90
2019-04-16T00:04:43.477Z,80.60
2019-04-16T00:08:57.219Z,80.90
2019-04-16T00:13:29.574Z,82.10
2019-04-16T00:17:35.834Z,82.00
2019-04-16T00:22:05.734Z,82.00
2019-04-16T00:26:10.333Z,82.90
2019-04-16T00:30:16.508Z,82.70
2019-04-16T00:34:21.165Z,82.70
2019-04-16T00:38:25.775Z,83.20
2019-04-16T00:42:30.363Z,83.20
2019-04-16T00:46:34.916Z,83.00
2019-04-16T00:50:39.702Z,83.90
2019-04-16T00:54:44.290Z,83.60
2019-04-16T00:58:49.404Z,83.20
2019-04-16T01:02:55.264Z,83.70
2019-04-16T01:06:59.950Z,83.80
2019-04-16T01:11:04.531Z,83.90
2019-04-16T01:15:09.264Z,83.60
2019-04-16T01:19:14.149Z,84.80
2019-04-16T01:23:18.884Z,84.10
2019-04-16T01:27:31.701Z,84.40
2019-04-16T01:31:46.477Z,85.20
2019-04-16T01:36:14.071Z,84.10
2019-04-16T01:40:23.502Z,84.80
2019-04-16T01:44:29.436Z,84.30
2019-04-16T01:48:38.716Z,83.40
2019-04-16T01:52:40.789Z,84.80
2019-04-16T01:56:45.966Z,85.10
2019-04-16T02:00:50.573Z,82.30
2019-04-16T02:04:55.162Z,83.20
2019-04-16T02:09:02.942Z,81.70
2019-04-16T02:13:08.094Z,82.50
2019-04-16T02:17:12.763Z,81.30
2019-04-16T02:21:17.372Z,81.30
2019-04-16T02:25:22.091Z,81.30
2019-04-16T02:29:29.414Z,80.20
2019-04-16T02:33:33.006Z,81.40
2019-04-16T02:37:37.812Z,80.90
2019-04-16T02:41:42.440Z,79.90
2019-04-16T02:45:47.109Z,80.20
2019-04-16T02:49:56.408Z,79.70
2019-04-16T02:54:13.652Z,79.60
2019-04-16T02:58:26.786Z,79.50
2019-04-16T03:02:53.857Z,79.70
2019-04-16T03:06:57.675Z,79.40
2019-04-16T03:11:04.669Z,79.50
2019-04-16T03:15:09.659Z,79.20
2019-04-16T03:19:20.131Z,80.00
2019-04-16T03:23:23.842Z,80.40
2019-04-16T03:27:28.502Z,80.90
2019-04-16T03:31:33.209Z,80.30
2019-04-16T03:35:37.879Z,81.10
2019-04-16T03:39:44.755Z,80.50
2019-04-16T03:43:50.529Z,80.20
2019-04-16T03:47:55.369Z,80.50
2019-04-16T03:52:00.139Z,80.40
2019-04-16T03:56:04.807Z,81.10
2019-04-16T04:00:12.450Z,80.30
2019-04-16T04:04:16.147Z,81.10
2019-04-16T04:08:20.740Z,80.40
2019-04-16T04:12:27.799Z,80.00
2019-04-16T04:16:33.538Z,80.00
2019-04-16T04:20:38.070Z,80.40
2019-04-16T04:24:42.641Z,82.20
2019-04-16T04:28:48.587Z,82.00
2019-04-16T04:32:53.632Z,82.50
2019-04-16T04:36:59.675Z,81.30
2019-04-16T04:41:04.921Z,81.20
2019-04-16T04:45:10.223Z,81.50
2019-04-16T04:49:15.521Z,82.20
2019-04-16T04:53:20.351Z,82.50
2019-04-16T04:57:24.969Z,81.40
2019-04-16T05:01:29.554Z,82.90
2019-04-16T05:05:41.971Z,82.20
2019-04-16T05:09:46.593Z,82.10
2019-04-16T05:13:53.452Z,81.40
2019-04-16T05:17:57.622Z,81.50
2019-04-16T05:22:02.487Z,81.40
2019-04-16T05:26:09.694Z,79.60
2019-04-16T05:30:19.957Z,79.60
2019-04-16T05:34:21.519Z,79.70
2019-04-16T05:38:29.488Z,78.70
2019-04-16T05:42:34.170Z,78.30
2019-04-16T05:46:41.438Z,79.70
2019-04-16T05:50:45.283Z,78.80
2019-04-16T05:55:07.574Z,78.60
2019-04-16T05:59:18.713Z,77.90
2019-04-16T06:03:23.437Z,76.50
2019-04-16T06:07:28.463Z,77.10
2019-04-16T06:11:36.543Z,75.80
2019-04-16T06:16:02.277Z,75.30
2019-04-16T06:20:19.565Z,74.80
2019-04-16T06:24:35.841Z,74.80
2019-04-16T06:28:55.102Z,83.30
2019-04-16T06:33:07.099Z,72.00
2019-04-16T06:37:39.903Z,75.70
2019-04-16T06:41:52.833Z,69.70
2019-04-16T06:46:15.269Z,69.20
2019-04-16T06:50:40.586Z,70.60
2019-04-16T06:55:00.556Z,69.60
2019-04-16T06:59:19.862Z,70.00
2019-04-16T07:03:47.410Z,68.50
2019-04-16T07:08:11.774Z,63.80
2019-04-16T07:12:28.579Z,61.20
2019-04-16T07:16:33.716Z,61.50
2019-04-16T07:20:38.815Z,64.50
2019-04-16T07:24:43.739Z,63.30
2019-04-16T07:28:58.538Z,54.20
2019-04-16T07:33:17.731Z,46.60
2019-04-16T07:37:40.182Z,44.50
2019-04-16T07:42:10.757Z,35.70
2019-04-16T07:46:47.092Z,32.40
2019-04-16T07:51:10.115Z,30.90
2019-04-16T07:55:31.632Z,32.70
2019-04-16T07:59:36.309Z,30.80
2019-04-16T08:03:41.010Z,28.50
2019-04-16T08:07:45.624Z,31.10
2019-04-16T08:11:50.235Z,27.20
2019-04-16T08:15:56.747Z,27.70
2019-04-16T08:20:01.427Z,25.10
2019-04-16T08:24:07.979Z,25.00
2019-04-16T08:28:12.978Z,24.90
2019-04-16T08:32:18.124Z,26.50
2019-04-16T08:36:22.815Z,25.50
2019-04-16T08:40:27.450Z,27.10
2019-04-16T08:44:35.462Z,24.70
2019-04-16T08:48:38.578Z,23.40
2019-04-16T08:52:43.322Z,26.30
2019-04-16T08:56:48.440Z,24.90
2019-04-16T09:00:53.246Z,23.00
2019-04-16T09:04:57.858Z,21.90
2019-04-16T09:09:14.172Z,20.10
2019-04-16T09:13:20.018Z,22.20
2019-04-16T09:17:35.960Z,22.40
2019-04-16T09:21:43.229Z,22.10
2019-04-16T09:26:15.194Z,24.40
2019-04-16T09:30:37.094Z,23.10
2019-04-16T09:35:10.069Z,22.40
2019-04-16T09:39:31.805Z,22.60
2019-04-16T09:43:40.450Z,22.90
2019-04-16T09:47:45.199Z,23.60
2019-04-16T09:51:51.122Z,24.20
2019-04-16T09:55:55.965Z,24.40
2019-04-16T10:00:02.155Z,22.20
2019-04-16T10:04:10.087Z,23.20
2019-04-16T10:08:18.398Z,24.20
2019-04-16T10:12:23.253Z,23.10
2019-04-16T10:16:29.874Z,22.90
2019-04-16T10:20:34.627Z,24.60
2019-04-16T10:24:57.654Z,22.10
2019-04-16T10:29:06.047Z,22.00
2019-04-16T10:33:11.029Z,21.30
2019-04-16T10:37:15.689Z,22.20
2019-04-16T10:41:35.139Z,24.30
2019-04-16T10:45:52.009Z,23.30
2019-04-16T10:50:27.740Z,22.60
2019-04-16T10:54:43.350Z,24.10
2019-04-16T10:59:09.235Z,22.70
2019-04-16T11:03:37.888Z,22.10
2019-04-16T11:07:42.987Z,20.40
2019-04-16T11:11:47.691Z,22.60
2019-04-16T11:15:52.670Z,20.50
2019-04-16T11:20:00.091Z,22.70
2019-04-16T11:24:04.287Z,20.80
2019-04-16T11:28:09.311Z,20.00
2019-04-16T11:32:15.450Z,20.50
2019-04-16T11:36:21.027Z,20.70
2019-04-16T11:40:25.955Z,21.20
2019-04-16T11:44:30.576Z,18.70
2019-04-16T11:48:37.594Z,19.20
2019-04-16T11:52:42.684Z,18.80
2019-04-16T11:56:47.342Z,19.30
2019-04-16T12:00:57.084Z,19.00
2019-04-16T12:05:26.870Z,18.80
2019-04-16T12:09:54.201Z,19.40
2019-04-16T12:14:10.481Z,18.30
2019-04-16T12:18:26.237Z,18.00
2019-04-16T12:22:37.130Z,19.50
2019-04-16T12:26:59.621Z,19.00
2019-04-16T12:31:09.166Z,18.80
2019-04-16T12:35:18.000Z,19.20
2019-04-16T12:39:36.001Z,19.40
2019-04-16T12:43:44.825Z,19.80
2019-04-16T12:48:08.997Z,19.30
2019-04-16T12:52:26.054Z,18.70
2019-04-16T12:56:48.523Z,19.20
2019-04-16T13:01:03.079Z,18.10
2019-04-16T13:05:20.799Z,19.10
2019-04-16T13:09:56.445Z,20.00
2019-04-16T13:14:30.156Z,19.30
2019-04-16T13:18:51.956Z,19.90
2019-04-16T13:22:58.892Z,19.80
2019-04-16T13:27:16.218Z,20.70
2019-04-16T13:31:20.894Z,21.00
2019-04-16T13:35:25.527Z,21.00
2019-04-16T13:39:52.110Z,20.00
2019-04-16T13:44:01.371Z,18.70
2019-04-16T13:48:17.247Z,18.60
2019-04-16T13:52:17.016Z,19.90
2019-04-16T13:56:42.056Z,19.20
2019-04-16T14:00:51.239Z,19.60
2019-04-16T14:05:00.018Z,18.90
2019-04-16T14:09:05.760Z,19.50
2019-04-16T14:13:13.244Z,20.40
2019-04-16T14:17:19.018Z,18.60
2019-04-16T14:21:23.666Z,18.80
2019-04-16T14:25:34.240Z,19.50
2019-04-16T14:29:39.668Z,19.30
2019-04-16T14:33:55.309Z,20.00
2019-04-16T14:38:03.162Z,19.80
2019-04-16T14:42:07.944Z,19.90
2019-04-16T14:46:12.969Z,22.30
2019-04-16T14:50:20.035Z,22.50
2019-04-16T14:54:32.292Z,24.20
2019-04-16T14:58:44.990Z,25.00
2019-04-16T15:03:09.991Z,24.50
2019-04-16T15:07:28.450Z,24.20
2019-04-16T15:11:51.373Z,24.10
2019-04-16T15:16:10.920Z,24.60
2019-04-16T15:20:26.449Z,24.70
2019-04-16T15:24:45.370Z,24.50
2019-04-16T15:29:05.273Z,24.20
2019-04-16T15:33:23.473Z,24.30
2019-04-16T15:37:47.515Z,25.30
2019-04-16T15:42:09.666Z,24.80
2019-04-16T15:46:35.125Z,24.90
2019-04-16T15:50:48.990Z,25.00
2019-04-16T15:55:19.129Z,25.00
2019-04-16T15:59:28.920Z,25.50
2019-04-16T16:04:10.755Z,25.30
2019-04-16T16:08:35.738Z,25.40
2019-04-16T16:12:39.155Z,26.20
2019-04-16T16:16:43.843Z,26.00
2019-04-16T16:20:48.445Z,25.80
2019-04-16T16:24:53.055Z,26.00
2019-04-16T16:28:57.679Z,26.80
2019-04-16T16:33:03.304Z,26.20
2019-04-16T16:37:08.824Z,25.80
2019-04-16T16:41:13.815Z,27.60
2019-04-16T16:45:20.567Z,28.20
2019-04-16T16:49:25.897Z,26.90
2019-04-16T16:53:41.884Z,26.80
2019-04-16T16:57:50.322Z,27.40
2019-04-16T17:02:14.071Z,27.50
2019-04-16T17:06:20.897Z,27.60
2019-04-16T17:10:25.567Z,27.80
2019-04-16T17:14:30.162Z,28.20
2019-04-16T17:18:35.035Z,29.60
2019-04-16T17:22:40.989Z,29.20
2019-04-16T17:26:46.904Z,30.10
2019-04-16T17:30:52.133Z,30.60
2019-04-16T17:34:56.808Z,31.10
2019-04-16T17:39:01.904Z,32.10
2019-04-16T17:43:27.098Z,31.80
2019-04-16T17:47:49.744Z,31.90
2019-04-16T17:52:16.418Z,32.80
2019-04-16T17:56:37.971Z,32.80
2019-04-16T18:01:10.097Z,32.80
2019-04-16T18:05:28.879Z,32.90
2019-04-16T18:09:38.164Z,33.70
2019-04-16T18:14:06.645Z,33.70
2019-04-16T18:18:16.938Z,33.80
2019-04-16T18:22:35.310Z,33.70
2019-04-16T18:26:58.281Z,33.60
2019-04-16T18:31:15.732Z,33.50
2019-04-16T18:35:28.187Z,33.80
2019-04-16T18:39:38.980Z,33.90
2019-04-16T18:44:01.794Z,33.90
2019-04-16T18:48:17.798Z,34.00
2019-04-16T18:52:22.626Z,34.30
2019-04-16T18:56:28.120Z,34.50
2019-04-16T19:00:41.699Z,34.30
2019-04-16T19:04:46.812Z,34.20
2019-04-16T19:08:51.914Z,34.30
2019-04-16T19:12:57.048Z,34.40
2019-04-16T19:17:01.908Z,34.50
2019-04-16T19:21:06.934Z,34.40
2019-04-16T19:25:11.931Z,34.60
2019-04-16T19:29:16.937Z,34.70
2019-04-16T19:33:23.574Z,34.90
2019-04-16T19:37:29.750Z,35.00
2019-04-16T19:41:36.928Z,35.20
2019-04-16T19:45:49.439Z,35.60
2019-04-16T19:50:08.184Z,35.60
2019-04-16T19:54:23.702Z,35.60
2019-04-16T19:58:33.267Z,36.00
2019-04-16T20:02:42.840Z,36.10
2019-04-16T20:06:54.058Z,35.90
2019-04-16T20:11:00.776Z,36.40
2019-04-16T20:15:09.458Z,36.50
2019-04-16T20:19:14.185Z,36.70
2019-04-16T20:23:20.283Z,36.60
2019-04-16T20:27:39.694Z,36.80
2019-04-16T20:31:56.265Z,37.10
2019-04-16T20:36:24.513Z,37.50
2019-04-16T20:40:38.864Z,37.40
2019-04-16T20:45:02.021Z,37.50
2019-04-16T20:49:16.864Z,37.70
2019-04-16T20:53:34.116Z,37.80
2019-04-16T20:58:07.917Z,38.10
2019-04-16T21:02:13.351Z,38.40
2019-04-16T21:06:18.281Z,38.50
2019-04-16T21:10:23.249Z,38.50
2019-04-16T21:14:30.287Z,38.50
2019-04-16T21:18:36.498Z,38.70
2019-04-16T21:22:44.239Z,38.90
2019-04-16T21:26:51.301Z,39.40
2019-04-16T21:31:01.150Z,39.60
2019-04-16T21:35:13.322Z,40.30
2019-04-16T21:39:25.197Z,40.50
2019-04-16T21:43:32.282Z,40.60
2019-04-16T21:47:37.402Z,40.80
2019-04-16T21:52:02.512Z,40.60
2019-04-16T21:56:09.093Z,40.90
2019-04-16T22:01:08.091Z,40.60
2019-04-16T22:05:17.754Z,40.60
2019-04-16T22:09:23.290Z,41.10
2019-04-16T22:13:28.496Z,41.10
2019-04-16T22:17:35.779Z,41.20
2019-04-16T22:21:42.800Z,41.50
2019-04-16T22:25:49.142Z,41.70
2019-04-16T22:29:54.544Z,42.10
2019-04-16T22:34:00.055Z,42.40
2019-04-16T22:38:05.198Z,42.40
2019-04-16T22:42:19.166Z,42.80
2019-04-16T22:46:36.260Z,42.90
2019-04-16T22:50:41.007Z,44.20
2019-04-16T22:54:45.865Z,43.50
2019-04-16T22:58:52.297Z,43.50
2019-04-16T23:02:57.020Z,43.50
2019-04-16T23:07:01.833Z,43.80
2019-04-16T23:11:06.381Z,43.80
2019-04-16T23:15:12.907Z,43.90
2019-04-16T23:19:20.193Z,43.70
2019-04-16T23:23:23.982Z,43.80
2019-04-16T23:27:29.091Z,43.90
2019-04-16T23:31:34.061Z,44.10
2019-04-16T23:35:43.147Z,44.00
2019-04-16T23:39:45.124Z,44.20
2019-04-16T23:44:07.600Z,44.20
2019-04-16T23:48:23.161Z,44.30
2019-04-16T23:52:35.315Z,45.10
2019-04-16T23:56:43.336Z,44.60
